Time;durP1;ratioP1;P1;durP2;ratioP2;P2;SDS_P1;SDS_P2;PMS_P1;PMS_P2;Temp;Humidity;BMP_temperature;BMP_pressure;BME280_temperature;BME280_humidity;BME280_pressure;Samples;Min_cycle;Max_cycle;Signal;HPM_P1;HPM_P2
2022/11/13 00:01:25;;;;;;;22.75;18.42;;;4.80;99.90;;;;;;5986024;23;20334;-71
2022/11/13 00:03:53;;;;;;;46.03;20.30;;;4.50;99.90;;;;;;5985387;23;20209;-70
2022/11/13 00:06:21;;;;;;;42.72;20.75;;;4.40;99.90;;;;;;5980173;23;20197;-71
2022/11/13 00:08:48;;;;;;;45.05;22.58;;;4.30;99.90;;;;;;5973714;23;20202;-71
2022/11/13 00:11:18;;;;;;;63.97;25.20;;;4.10;99.90;;;;;;5973731;23;20221;-72
2022/11/13 00:13:48;;;;;;;29.00;21.80;;;4.10;99.90;;;;;;5978201;23;20654;-73
2022/11/13 00:16:17;;;;;;;24.92;22.52;;;4.10;99.90;;;;;;6001214;23;20217;-71
2022/11/13 00:18:45;;;;;;;26.02;23.63;;;4.10;99.90;;;;;;5970723;24;20742;-71
2022/11/13 00:21:14;;;;;;;46.50;23.05;;;4.20;99.90;;;;;;5976759;23;20776;-72
2022/11/13 00:23:42;;;;;;;77.93;27.60;;;4.20;99.90;;;;;;5979028;24;20195;-71
2022/11/13 00:26:11;;;;;;;42.28;20.85;;;4.30;99.90;;;;;;5979617;23;20236;-71
2022/11/13 00:28:39;;;;;;;40.15;22.75;;;4.40;99.90;;;;;;5978986;24;20214;-71
2022/11/13 00:31:14;;;;;;;30.38;20.80;;;4.40;99.90;;;;;;5999571;23;20194;-71
2022/11/13 00:33:42;;;;;;;29.02;18.63;;;4.40;99.90;;;;;;6005868;23;20703;-72
2022/11/13 00:36:12;;;;;;;25.73;20.48;;;4.40;99.90;;;;;;5966232;23;20294;-71
2022/11/13 00:38:40;;;;;;;34.63;18.65;;;4.40;99.90;;;;;;5973208;24;20233;-71
2022/11/13 00:41:10;;;;;;;32.05;22.08;;;4.40;99.90;;;;;;6001087;23;20252;-72
2022/11/13 00:43:37;;;;;;;19.38;17.48;;;4.50;99.90;;;;;;5979809;23;20231;-71
2022/11/13 00:46:06;;;;;;;26.48;19.45;;;4.50;99.90;;;;;;6005984;23;20269;-71
2022/11/13 00:48:35;;;;;;;67.80;24.58;;;4.50;99.90;;;;;;5986811;23;20266;-72
2022/11/13 00:51:03;;;;;;;19.67;17.65;;;4.60;99.90;;;;;;5994179;23;20281;-72
2022/11/13 00:53:31;;;;;;;109.80;27.95;;;4.60;99.90;;;;;;5974816;23;20673;-72
2022/11/13 00:55:59;;;;;;;20.23;18.52;;;4.60;99.90;;;;;;5950699;24;20611;-71
2022/11/13 00:58:26;;;;;;;19.73;17.65;;;4.60;99.90;;;;;;5989985;23;20584;-71
2022/11/13 01:00:57;;;;;;;18.27;16.75;;;4.60;99.90;;;;;;5987487;23;20282;-71
2022/11/13 01:03:24;;;;;;;31.45;16.70;;;4.60;99.90;;;;;;5979538;23;20199;-71
2022/11/13 01:05:54;;;;;;;33.05;16.58;;;4.60;99.90;;;;;;5964881;24;20195;-71
2022/11/13 01:08:21;;;;;;;17.45;16.05;;;4.50;99.90;;;;;;5996215;23;20225;-72
2022/11/13 01:10:49;;;;;;;15.70;14.38;;;4.50;99.90;;;;;;5994346;23;20258;-72
2022/11/13 01:13:16;;;;;;;15.18;13.90;;;4.40;99.90;;;;;;5987037;23;20199;-71
2022/11/13 01:15:45;;;;;;;16.20;14.85;;;4.40;99.90;;;;;;5993272;23;20242;-71
2022/11/13 01:18:12;;;;;;;15.93;14.55;;;4.30;99.90;;;;;;5990695;23;20568;-70
2022/11/13 01:20:40;;;;;;;18.98;17.00;;;4.40;99.90;;;;;;5978779;23;20199;-70
2022/11/13 01:23:09;;;;;;;16.67;15.32;;;4.40;99.90;;;;;;5986510;23;20199;-71
2022/11/13 01:25:36;;;;;;;15.80;14.60;;;4.40;99.90;;;;;;5977274;23;20186;-70
2022/11/13 01:28:05;;;;;;;16.20;14.80;;;4.40;99.90;;;;;;5991401;23;20202;-70
2022/11/13 01:30:32;;;;;;;17.65;16.02;;;4.40;99.90;;;;;;5992495;23;20214;-71
2022/11/13 01:32:59;;;;;;;15.93;14.52;;;4.40;99.90;;;;;;5978981;23;20210;-71
2022/11/13 01:35:27;;;;;;;17.77;16.13;;;4.50;99.90;;;;;;5978223;24;20297;-71
2022/11/13 01:37:54;;;;;;;14.90;13.80;;;4.50;99.90;;;;;;5956617;24;20241;-71
2022/11/13 01:40:22;;;;;;;14.38;12.98;;;4.50;99.90;;;;;;5979560;23;20588;-71
2022/11/13 01:42:49;;;;;;;14.35;13.25;;;4.50;99.90;;;;;;5988172;23;20190;-71
2022/11/13 01:46:05;;;;;;;15.60;14.30;;;4.50;99.90;;;;;;5985904;23;20596;-71
2022/11/13 01:48:36;;;;;;;13.05;12.07;;;4.40;99.90;;;;;;5949469;24;20233;-71
2022/11/13 01:51:07;;;;;;;13.50;12.40;;;4.40;99.90;;;;;;5972158;23;20194;-71
2022/11/13 01:53:34;;;;;;;12.02;10.93;;;4.30;99.90;;;;;;5976490;23;20703;-71
2022/11/13 01:56:03;;;;;;;14.15;13.05;;;4.10;99.90;;;;;;5960049;23;20693;-70
2022/11/13 01:58:30;;;;;;;13.68;12.57;;;4.10;99.90;;;;;;5962074;23;20198;-71
2022/11/13 02:00:58;;;;;;;13.30;12.20;;;4.00;99.90;;;;;;5977671;23;20203;-70
2022/11/13 02:03:25;;;;;;;19.40;14.73;;;4.10;99.90;;;;;;5983975;23;20640;-70
2022/11/13 02:05:54;;;;;;;14.10;13.10;;;4.10;99.90;;;;;;5950452;24;20187;-70
2022/11/13 02:08:21;;;;;;;13.63;12.60;;;4.00;99.90;;;;;;5981071;23;20233;-71
2022/11/13 02:10:48;;;;;;;13.38;12.38;;;4.10;99.90;;;;;;5990960;23;20222;-71
2022/11/13 02:13:16;;;;;;;19.70;17.55;;;4.10;99.90;;;;;;5960527;23;20207;-71
2022/11/13 02:15:45;;;;;;;14.15;13.15;;;4.10;99.90;;;;;;5951231;24;20306;-70
2022/11/13 02:18:14;;;;;;;14.65;13.45;;;4.10;99.90;;;;;;5966821;23;20229;-70
2022/11/13 02:20:47;;;;;;;13.68;12.57;;;4.10;99.90;;;;;;5992287;23;20279;-70
2022/11/13 02:23:21;;;;;;;12.90;11.77;;;4.10;99.90;;;;;;5984284;23;20668;-70
2022/11/13 02:25:53;;;;;;;13.07;12.13;;;4.10;99.90;;;;;;5978543;23;20191;-70
2022/11/13 02:28:20;;;;;;;13.38;12.38;;;4.10;99.90;;;;;;5983948;23;20199;-70
2022/11/13 02:30:48;;;;;;;13.75;12.65;;;4.10;99.90;;;;;;5976068;24;20194;-71
2022/11/13 02:33:24;;;;;;;14.40;13.18;;;4.10;99.90;;;;;;5997745;23;20194;-71
2022/11/13 02:35:52;;;;;;;12.95;12.05;;;4.20;99.90;;;;;;6006523;23;20210;-70
2022/11/13 02:38:19;;;;;;;13.07;12.18;;;4.10;99.90;;;;;;5979209;23;20198;-70
2022/11/13 02:40:47;;;;;;;16.17;14.70;;;4.20;99.90;;;;;;5976980;24;20198;-71
2022/11/13 02:43:15;;;;;;;15.57;14.23;;;4.20;99.90;;;;;;5987336;23;20198;-71
2022/11/13 02:45:43;;;;;;;13.75;12.75;;;4.20;99.90;;;;;;6002244;23;20200;-70
2022/11/13 02:48:10;;;;;;;13.40;12.40;;;4.30;99.90;;;;;;5987877;23;20241;-70
2022/11/13 02:50:38;;;;;;;13.85;12.45;;;4.30;99.90;;;;;;6001875;23;20664;-70
2022/11/13 02:53:06;;;;;;;15.73;14.43;;;4.30;99.90;;;;;;5992861;23;20201;-71
2022/11/13 02:55:33;;;;;;;53.38;19.65;;;4.30;99.90;;;;;;5991462;23;20246;-70
2022/11/13 02:58:00;;;;;;;20.30;13.55;;;4.30;99.90;;;;;;5996644;23;20217;-71
2022/11/13 03:00:29;;;;;;;13.00;12.00;;;4.30;99.90;;;;;;5982695;23;20222;-70
2022/11/13 03:02:56;;;;;;;12.60;11.57;;;4.10;99.90;;;;;;5989284;23;20202;-70
2022/11/13 03:05:23;;;;;;;19.13;12.13;;;4.10;99.90;;;;;;5978351;24;20278;-71
2022/11/13 03:07:50;;;;;;;12.57;11.60;;;3.80;99.90;;;;;;5967960;23;20258;-70
2022/11/13 03:10:18;;;;;;;13.27;12.18;;;3.70;99.90;;;;;;5960601;23;20249;-70
2022/11/13 03:12:46;;;;;;;14.38;12.88;;;3.70;99.90;;;;;;5980710;23;20545;-70
2022/11/13 03:15:13;;;;;;;13.77;12.65;;;3.70;99.90;;;;;;5976500;24;20661;-70
2022/11/13 03:17:42;;;;;;;13.60;12.50;;;3.70;99.90;;;;;;5967583;23;20211;-70
2022/11/13 03:20:09;;;;;;;14.00;12.90;;;3.80;99.90;;;;;;5950309;24;20198;-70
2022/11/13 03:22:37;;;;;;;15.00;13.80;;;3.80;99.90;;;;;;5982350;23;20201;-71
2022/11/13 03:25:05;;;;;;;14.85;13.55;;;3.90;99.90;;;;;;5976569;24;20668;-70
2022/11/13 03:27:32;;;;;;;13.75;12.45;;;3.90;99.90;;;;;;5976197;23;20645;-70
2022/11/13 03:29:59;;;;;;;16.35;14.85;;;4.00;99.90;;;;;;5978117;24;20217;-70
2022/11/13 03:32:26;;;;;;;14.30;13.10;;;4.10;99.90;;;;;;5973351;23;20273;-70
2022/11/13 03:34:55;;;;;;;14.52;13.23;;;4.10;99.90;;;;;;6000580;23;20277;-70
2022/11/13 03:37:22;;;;;;;15.68;14.35;;;4.20;99.90;;;;;;5976731;23;20215;-71
2022/11/13 03:39:49;;;;;;;14.65;13.50;;;4.20;99.90;;;;;;5963216;23;20230;-70
2022/11/13 03:42:17;;;;;;;17.02;15.23;;;4.30;99.90;;;;;;5973803;23;20200;-70
2022/11/13 03:44:44;;;;;;;16.73;15.07;;;4.30;99.90;;;;;;6003775;23;20202;-70
2022/11/13 03:47:12;;;;;;;29.20;17.70;;;4.30;99.90;;;;;;5990281;23;20191;-70
2022/11/13 03:49:39;;;;;;;16.77;14.13;;;4.30;99.90;;;;;;5962521;24;20548;-70
2022/11/13 03:52:08;;;;;;;35.33;17.05;;;4.30;99.90;;;;;;5978024;23;20715;-70
2022/11/13 03:54:35;;;;;;;16.50;12.82;;;4.30;99.90;;;;;;5977457;24;20197;-70
2022/11/13 03:57:02;;;;;;;14.65;13.38;;;4.30;99.90;;;;;;5986099;23;20610;-70
2022/11/13 03:59:29;;;;;;;13.68;12.63;;;4.30;99.90;;;;;;6007105;23;20272;-70
2022/11/13 04:01:56;;;;;;;27.65;15.75;;;4.30;99.90;;;;;;6002051;23;20599;-70
2022/11/13 04:04:24;;;;;;;14.38;13.25;;;4.20;99.90;;;;;;5964812;23;20285;-70
2022/11/13 04:06:51;;;;;;;12.95;11.75;;;4.20;99.90;;;;;;5966494;23;20278;-70
2022/11/13 04:09:19;;;;;;;13.05;11.90;;;4.20;99.90;;;;;;6005613;23;20194;-70
2022/11/13 04:11:46;;;;;;;13.60;12.50;;;4.10;99.90;;;;;;5967738;23;20207;-70
2022/11/13 04:14:13;;;;;;;16.75;13.10;;;4.10;99.90;;;;;;5951023;24;20231;-70
2022/11/13 04:16:40;;;;;;;12.80;11.88;;;4.10;99.90;;;;;;5950990;24;20215;-70
2022/11/13 04:19:08;;;;;;;15.50;12.43;;;4.10;99.90;;;;;;5952241;24;20716;-70
2022/11/13 04:21:35;;;;;;;22.88;15.20;;;4.10;99.90;;;;;;5970271;23;20605;-70
2022/11/13 04:24:02;;;;;;;12.52;11.63;;;4.00;99.90;;;;;;5984153;23;20691;-70
2022/11/13 04:26:31;;;;;;;20.05;14.10;;;4.00;99.90;;;;;;5994807;23;20194;-70
2022/11/13 04:28:57;;;;;;;12.90;11.68;;;4.00;99.90;;;;;;5972338;23;20206;-70
2022/11/13 04:31:24;;;;;;;19.92;13.38;;;4.00;99.90;;;;;;5950949;24;20217;-70
2022/11/13 04:33:52;;;;;;;13.57;12.32;;;3.90;99.90;;;;;;5967024;24;20652;-70
2022/11/13 04:36:19;;;;;;;12.85;11.80;;;3.90;99.90;;;;;;5978884;24;20215;-70
2022/11/13 04:38:46;;;;;;;15.25;13.63;;;3.80;99.90;;;;;;5982828;23;20199;-70
2022/11/13 04:43:59;;;;;;;12.65;11.65;;;3.70;99.90;;;;;;5978706;24;20190;-70
2022/11/13 04:46:27;;;;;;;11.75;10.85;;;3.60;99.90;;;;;;5976637;24;20657;-70
2022/11/13 04:48:54;;;;;;;11.88;10.98;;;3.60;99.90;;;;;;5964911;23;20206;-70
2022/11/13 04:51:23;;;;;;;11.60;10.60;;;3.50;99.90;;;;;;5978883;24;20195;-71
2022/11/13 04:53:50;;;;;;;22.65;13.27;;;3.50;99.90;;;;;;5978471;23;20727;-70
2022/11/13 04:56:17;;;;;;;14.55;13.02;;;3.50;99.90;;;;;;5976624;23;20275;-70
2022/11/13 04:58:44;;;;;;;14.07;12.98;;;3.50;99.90;;;;;;6000411;23;20197;-70
2022/11/13 05:01:13;;;;;;;16.25;13.55;;;3.40;99.90;;;;;;5989691;23;20229;-70
2022/11/13 05:03:40;;;;;;;13.45;12.45;;;3.40;99.90;;;;;;5978871;24;20217;-70
2022/11/13 05:06:09;;;;;;;19.02;13.98;;;3.40;99.90;;;;;;5960053;23;20195;-70
2022/11/13 05:08:37;;;;;;;14.88;13.65;;;3.40;99.90;;;;;;5949101;24;20704;-70
2022/11/13 05:11:04;;;;;;;14.55;13.35;;;3.40;99.90;;;;;;5951258;24;20270;-71
2022/11/13 05:13:32;;;;;;;15.30;14.05;;;3.40;99.90;;;;;;5951250;24;20230;-70
2022/11/13 05:16:03;;;;;;;18.75;14.35;;;3.40;99.90;;;;;;5968461;23;20249;-70
2022/11/13 05:18:33;;;;;;;16.75;15.07;;;3.50;99.90;;;;;;5979316;23;20252;-71
2022/11/13 05:21:00;;;;;;;15.23;13.82;;;3.50;99.90;;;;;;5977500;24;20281;-70
2022/11/13 05:23:28;;;;;;;15.23;13.75;;;3.50;99.90;;;;;;5978687;23;20218;-70
2022/11/13 05:26:01;;;;;;;15.25;13.85;;;3.40;99.90;;;;;;5976596;24;20224;-70
2022/11/13 05:28:29;;;;;;;16.33;12.70;;;3.40;99.90;;;;;;5976061;24;20653;-70
2022/11/13 05:31:03;;;;;;;13.32;12.10;;;3.40;99.90;;;;;;5960803;24;20554;-71
2022/11/13 05:33:32;;;;;;;21.80;13.98;;;3.40;99.90;;;;;;5973963;23;20719;-70
2022/11/13 05:36:02;;;;;;;13.20;11.98;;;3.40;99.90;;;;;;5978477;24;20210;-70
2022/11/13 05:38:29;;;;;;;21.05;13.85;;;3.40;99.90;;;;;;5978924;23;20191;-70
2022/11/13 05:41:01;;;;;;;13.45;12.25;;;3.40;99.90;;;;;;5977075;24;20660;-70
2022/11/13 05:43:28;;;;;;;13.25;12.15;;;3.40;99.90;;;;;;5951824;23;20254;-70
2022/11/13 05:46:00;;;;;;;13.07;11.77;;;3.30;99.90;;;;;;5968929;23;20202;-70
2022/11/13 05:48:28;;;;;;;12.57;11.38;;;3.30;99.90;;;;;;6006347;23;20605;-70
2022/11/13 05:51:01;;;;;;;43.70;15.80;;;3.30;99.90;;;;;;5978126;23;20229;-70
2022/11/13 05:53:28;;;;;;;18.55;12.90;;;3.30;99.90;;;;;;5977911;23;20206;-70
2022/11/13 05:56:00;;;;;;;34.58;15.82;;;3.30;99.90;;;;;;5977077;24;20309;-70
2022/11/13 05:58:28;;;;;;;14.27;12.68;;;3.20;99.90;;;;;;5987388;23;20687;-70
2022/11/13 06:01:06;;;;;;;13.52;12.30;;;3.20;99.90;;;;;;5976711;23;20218;-70
2022/11/13 06:03:33;;;;;;;56.60;15.90;;;3.20;99.90;;;;;;5978565;24;20224;-71
2022/11/13 06:06:02;;;;;;;15.68;12.10;;;3.20;99.90;;;;;;5978382;23;20230;-70
2022/11/13 06:08:29;;;;;;;12.85;11.80;;;3.20;99.90;;;;;;5978184;24;20715;-70
2022/11/13 06:10:59;;;;;;;13.65;11.80;;;3.30;99.90;;;;;;5974881;23;20269;-70
2022/11/13 06:13:27;;;;;;;11.82;10.82;;;3.30;99.90;;;;;;5977250;24;20224;-70
2022/11/13 06:15:56;;;;;;;12.63;11.52;;;3.40;99.90;;;;;;5977939;24;20649;-70
2022/11/13 06:18:24;;;;;;;11.98;10.90;;;3.40;99.90;;;;;;5980622;23;20536;-70
2022/11/13 06:20:51;;;;;;;24.83;11.52;;;3.40;99.90;;;;;;5974917;23;20661;-70
2022/11/13 06:23:20;;;;;;;11.23;10.32;;;3.50;99.90;;;;;;5967491;23;20226;-70
2022/11/13 06:25:48;;;;;;;11.35;10.25;;;3.50;99.90;;;;;;5978445;23;20227;-70
2022/11/13 06:28:16;;;;;;;11.90;10.70;;;3.50;99.90;;;;;;5970850;23;20198;-69
2022/11/13 06:30:43;;;;;;;23.02;12.07;;;3.50;99.90;;;;;;5976326;24;20201;-70
2022/11/13 06:33:10;;;;;;;12.43;11.43;;;3.50;99.90;;;;;;5978668;24;20194;-70
2022/11/13 06:35:37;;;;;;;11.80;10.80;;;3.50;99.90;;;;;;5978629;24;20288;-71
2022/11/13 06:38:05;;;;;;;12.27;11.32;;;3.50;99.90;;;;;;5978789;23;20281;-70
2022/11/13 06:40:33;;;;;;;11.90;10.90;;;3.50;99.90;;;;;;5955308;24;20687;-71
2022/11/13 06:43:01;;;;;;;11.35;10.55;;;3.50;99.90;;;;;;5975921;24;20605;-71
2022/11/13 06:45:28;;;;;;;12.55;10.93;;;3.60;99.90;;;;;;5978697;24;20273;-70
2022/11/13 06:47:55;;;;;;;10.15;9.35;;;3.60;99.90;;;;;;5978712;24;20191;-70
2022/11/13 06:50:22;;;;;;;10.73;9.77;;;3.60;99.90;;;;;;5978257;23;20226;-71
2022/11/13 06:52:49;;;;;;;11.85;10.75;;;3.60;99.90;;;;;;5976765;24;20202;-71
2022/11/13 06:55:17;;;;;;;11.20;10.30;;;3.60;99.90;;;;;;5976864;24;20557;-71
2022/11/13 06:57:45;;;;;;;16.95;12.02;;;3.70;99.90;;;;;;5980008;23;20297;-71
2022/11/13 07:00:13;;;;;;;11.13;10.23;;;3.70;99.90;;;;;;5977887;23;20191;-71
2022/11/13 07:02:43;;;;;;;11.32;10.20;;;3.70;99.90;;;;;;5976733;23;20202;-71
2022/11/13 07:05:10;;;;;;;10.25;9.45;;;3.60;99.90;;;;;;5950674;24;20227;-71
2022/11/13 07:07:37;;;;;;;9.68;8.88;;;3.60;99.90;;;;;;5950565;24;20266;-71
2022/11/13 07:10:05;;;;;;;10.48;9.57;;;3.60;99.90;;;;;;5967336;24;20609;-71
2022/11/13 07:12:32;;;;;;;10.77;9.88;;;3.60;99.90;;;;;;5978454;24;20273;-71
2022/11/13 07:15:01;;;;;;;11.75;10.82;;;3.60;99.90;;;;;;5981645;23;20202;-71
2022/11/13 07:17:29;;;;;;;10.35;9.52;;;3.70;99.90;;;;;;5986253;23;20246;-71
2022/11/13 07:19:56;;;;;;;12.45;10.50;;;3.70;99.90;;;;;;6003930;23;20229;-71
2022/11/13 07:22:23;;;;;;;11.25;10.35;;;3.70;99.90;;;;;;5975176;23;20474;-71
2022/11/13 07:24:50;;;;;;;10.88;9.98;;;3.80;99.90;;;;;;5975691;23;20278;-71
2022/11/13 07:27:18;;;;;;;10.88;9.75;;;3.80;99.90;;;;;;5977024;24;20226;-71
2022/11/13 07:29:45;;;;;;;13.23;12.10;;;3.90;99.90;;;;;;5978352;24;20202;-71
2022/11/13 07:32:15;;;;;;;11.07;10.07;;;3.90;99.90;;;;;;5977910;24;20195;-71
2022/11/13 07:34:42;;;;;;;14.15;10.82;;;4.00;99.90;;;;;;5977510;23;20657;-72
2022/11/13 07:37:09;;;;;;;13.85;9.65;;;4.00;99.90;;;;;;5976724;23;20214;-71
2022/11/13 07:39:36;;;;;;;12.23;9.20;;;4.00;99.90;;;;;;5976192;24;20191;-71
2022/11/13 07:42:03;;;;;;;9.38;8.68;;;3.90;99.90;;;;;;5990420;23;20690;-71
2022/11/13 07:44:30;;;;;;;10.50;9.18;;;3.80;99.90;;;;;;6006081;23;20619;-71
2022/11/13 07:46:57;;;;;;;11.07;10.07;;;3.80;99.90;;;;;;6006247;23;20191;-71
2022/11/13 07:49:27;;;;;;;10.50;9.60;;;3.80;99.90;;;;;;6005632;23;20256;-70
2022/11/13 07:51:54;;;;;;;11.00;10.05;;;3.90;99.90;;;;;;5999822;23;20225;-71
2022/11/13 07:54:21;;;;;;;12.75;11.25;;;4.00;99.90;;;;;;6005871;23;20209;-71
2022/11/13 07:56:48;;;;;;;10.35;9.35;;;4.10;99.90;;;;;;5976946;23;20628;-71
2022/11/13 07:59:15;;;;;;;11.93;10.48;;;4.20;99.90;;;;;;5978186;23;20194;-71
2022/11/13 08:01:42;;;;;;;16.20;10.70;;;4.30;99.90;;;;;;5977939;24;20191;-71
2022/11/13 08:04:10;;;;;;;9.95;9.05;;;4.30;99.90;;;;;;5975922;23;20290;-70
2022/11/13 08:06:39;;;;;;;11.18;10.15;;;4.40;99.90;;;;;;5997442;23;20194;-71
2022/11/13 08:09:07;;;;;;;11.75;10.55;;;4.40;99.90;;;;;;6005991;23;20226;-71
2022/11/13 08:11:35;;;;;;;10.50;9.57;;;4.50;99.90;;;;;;5977999;23;20226;-71
2022/11/13 08:14:02;;;;;;;11.10;10.10;;;4.50;99.90;;;;;;5976354;24;20203;-71
2022/11/13 08:16:30;;;;;;;11.07;10.18;;;4.60;99.90;;;;;;5976707;23;20202;-71
2022/11/13 08:18:58;;;;;;;8.95;8.25;;;4.60;99.90;;;;;;5975409;24;20278;-71
2022/11/13 08:21:25;;;;;;;10.35;9.45;;;4.70;99.90;;;;;;5977340;23;20195;-71
2022/11/13 08:23:53;;;;;;;12.32;11.15;;;4.70;99.90;;;;;;5977513;24;20743;-71
2022/11/13 08:26:21;;;;;;;10.45;9.45;;;4.70;99.90;;;;;;5983078;23;20229;-71
2022/11/13 08:28:48;;;;;;;10.43;9.63;;;4.70;99.90;;;;;;6005800;23;20187;-71
2022/11/13 08:31:16;;;;;;;11.52;10.52;;;4.80;99.90;;;;;;5993520;23;20222;-71
2022/11/13 08:33:44;;;;;;;10.85;9.95;;;4.80;99.90;;;;;;5960751;24;20296;-71
2022/11/13 08:36:11;;;;;;;9.68;8.88;;;4.90;99.90;;;;;;5970853;24;20203;-71
2022/11/13 08:38:38;;;;;;;10.38;9.27;;;5.00;99.90;;;;;;5949592;24;20294;-71
2022/11/13 08:41:07;;;;;;;9.88;8.98;;;5.10;99.90;;;;;;5977943;23;20276;-71
2022/11/13 08:43:35;;;;;;;10.20;9.35;;;5.10;99.90;;;;;;5993439;23;20249;-71
2022/11/13 08:46:02;;;;;;;11.52;10.38;;;5.10;99.90;;;;;;5968563;23;20205;-71
2022/11/13 08:48:29;;;;;;;11.70;10.77;;;5.00;99.90;;;;;;5965158;24;20194;-71
2022/11/13 08:50:57;;;;;;;12.10;10.38;;;5.00;99.90;;;;;;5978696;24;20657;-71
2022/11/13 08:53:25;;;;;;;12.20;11.10;;;4.90;99.90;;;;;;5978707;24;20209;-71
2022/11/13 08:55:52;;;;;;;11.23;10.23;;;4.90;99.90;;;;;;5991074;23;20197;-71
2022/11/13 08:58:21;;;;;;;12.20;10.95;;;5.00;99.90;;;;;;6005424;23;20225;-71
2022/11/13 09:00:48;;;;;;;10.90;9.90;;;5.10;99.90;;;;;;6005585;23;20288;-71
2022/11/13 09:03:15;;;;;;;11.35;10.25;;;5.20;99.90;;;;;;5978057;24;20271;-71
2022/11/13 09:05:43;;;;;;;13.93;11.38;;;5.30;99.90;;;;;;5978671;24;20742;-71
2022/11/13 09:08:10;;;;;;;11.40;10.30;;;5.40;99.90;;;;;;5976332;23;20549;-71
2022/11/13 09:10:37;;;;;;;10.23;9.27;;;5.50;99.90;;;;;;5980141;23;20198;-71
2022/11/13 09:13:07;;;;;;;10.10;9.20;;;5.50;99.90;;;;;;6006980;23;20267;-71
2022/11/13 09:15:37;;;;;;;10.38;9.57;;;5.60;99.90;;;;;;5956818;23;20206;-71
2022/11/13 09:18:06;;;;;;;10.20;9.38;;;5.70;99.90;;;;;;5957908;23;20225;-71
2022/11/13 09:20:33;;;;;;;10.57;9.68;;;5.70;99.90;;;;;;5978696;23;20194;-71
2022/11/13 09:23:02;;;;;;;9.93;9.20;;;5.80;99.90;;;;;;5962601;24;20569;-71
2022/11/13 09:25:31;;;;;;;10.10;9.25;;;5.90;99.90;;;;;;5963947;23;20203;-71
2022/11/13 09:28:00;;;;;;;9.27;8.48;;;6.10;99.90;;;;;;5980519;23;20546;-71
2022/11/13 09:30:30;;;;;;;9.50;8.80;;;6.30;99.90;;;;;;5965192;23;20287;-71
2022/11/13 09:33:00;;;;;;;13.82;11.45;;;6.50;99.90;;;;;;5950899;24;20279;-71
2022/11/13 09:35:35;;;;;;;13.88;12.68;;;6.50;99.90;;;;;;5980606;23;20192;-71
2022/11/13 09:38:04;;;;;;;12.15;11.05;;;6.40;99.90;;;;;;5950641;24;20298;-71
2022/11/13 09:40:35;;;;;;;12.32;11.20;;;6.50;99.90;;;;;;5970945;23;20198;-71
2022/11/13 09:43:04;;;;;;;11.65;10.75;;;6.50;99.90;;;;;;5978672;24;20538;-71
2022/11/13 09:45:32;;;;;;;10.55;9.75;;;6.60;99.90;;;;;;5977638;24;20252;-71
2022/11/13 09:48:12;;;;;;;11.65;10.65;;;6.60;99.90;;;;;;6005355;23;20188;-70
2022/11/13 09:50:40;;;;;;;10.70;9.80;;;6.80;99.90;;;;;;6006510;23;20198;-71
2022/11/13 09:53:09;;;;;;;11.27;10.38;;;7.40;99.90;;;;;;5986385;23;20233;-71
2022/11/13 09:55:45;;;;;;;9.80;9.00;;;8.20;99.90;;;;;;5978019;24;20194;-72
2022/11/13 09:58:19;;;;;;;7.93;7.30;;;9.10;99.90;;;;;;5976807;23;20250;-71
2022/11/13 10:00:46;;;;;;;8.65;7.95;;;9.90;99.90;;;;;;5976930;24;20194;-72
2022/11/13 10:03:29;;;;;;;8.43;7.82;;;10.50;99.90;;;;;;5977066;24;20218;-71
2022/11/13 10:06:04;;;;;;;8.73;8.13;;;11.20;99.90;;;;;;5979608;23;20186;-71
2022/11/13 10:08:51;;;;;;;9.10;8.40;;;11.80;99.90;;;;;;5963652;23;20426;-71
2022/11/13 10:11:27;;;;;;;8.50;7.90;;;12.20;99.90;;;;;;5978630;24;20431;-71
2022/11/13 10:13:59;;;;;;;7.53;7.03;;;12.40;99.90;;;;;;5976092;24;20200;-71
2022/11/13 10:16:33;;;;;;;8.80;8.10;;;12.50;99.90;;;;;;5978865;24;20467;-71
2022/11/13 10:19:20;;;;;;;7.87;7.33;;;12.70;99.90;;;;;;5977161;24;20556;-72
2022/11/13 10:21:50;;;;;;;7.73;7.23;;;13.20;99.90;;;;;;5977907;23;20453;-72
2022/11/13 10:24:27;;;;;;;8.13;7.53;;;13.70;99.90;;;;;;5978393;24;20892;-72
2022/11/13 10:26:57;;;;;;;8.20;7.60;;;14.00;99.90;;;;;;5977618;23;20441;-71
2022/11/13 10:29:28;;;;;;;8.30;7.70;;;14.10;99.90;;;;;;5950716;23;20467;-71
2022/11/13 10:31:57;;;;;;;8.33;7.73;;;14.00;99.90;;;;;;5950433;24;20992;-71
2022/11/13 10:34:26;;;;;;;8.80;8.17;;;13.80;99.90;;;;;;5950489;24;20452;-72
2022/11/13 10:37:11;;;;;;;9.90;9.17;;;13.80;99.90;;;;;;5951888;23;20980;-71
2022/11/13 10:39:42;;;;;;;9.33;8.67;;;13.80;99.90;;;;;;5950454;24;20429;-71
2022/11/13 10:42:21;;;;;;;8.60;7.97;;;14.00;99.90;;;;;;5961730;24;20520;-71
2022/11/13 10:44:54;;;;;;;8.47;7.87;;;14.20;99.90;;;;;;5978372;23;20525;-71
2022/11/13 10:47:24;;;;;;;8.30;7.70;;;14.30;99.90;;;;;;5990662;23;20421;-72
2022/11/13 10:49:54;;;;;;;8.70;8.10;;;14.50;99.90;;;;;;5996739;23;20932;-72
2022/11/13 10:52:24;;;;;;;8.73;8.13;;;14.70;99.90;;;;;;5978502;24;20451;-72
2022/11/13 10:55:04;;;;;;;8.23;7.63;;;14.90;99.90;;;;;;5977955;24;20437;-72
2022/11/13 10:57:33;;;;;;;7.97;7.37;;;15.00;99.90;;;;;;5950676;24;20447;-72
2022/11/13 11:00:00;;;;;;;7.73;7.23;;;15.30;99.90;;;;;;5950610;24;20437;-72
2022/11/13 11:02:28;;;;;;;8.47;7.87;;;15.20;99.90;;;;;;5956639;24;20438;-72
2022/11/13 11:05:06;;;;;;;8.57;7.97;;;15.30;99.90;;;;;;5976789;23;20444;-71
2022/11/13 11:07:40;;;;;;;7.77;7.20;;;15.40;99.90;;;;;;5979901;23;20426;-72
2022/11/13 11:10:21;;;;;;;7.80;7.20;;;15.50;99.90;;;;;;5978431;24;20425;-71
2022/11/13 11:12:52;;;;;;;7.60;7.10;;;15.50;99.90;;;;;;5950612;24;20419;-71
2022/11/13 11:15:25;;;;;;;8.83;8.23;;;15.50;99.90;;;;;;5950518;24;20430;-72
2022/11/13 11:17:59;;;;;;;8.50;7.90;;;15.70;99.90;;;;;;5974728;24;20549;-72
2022/11/13 11:20:41;;;;;;;8.40;7.80;;;16.00;99.90;;;;;;5972206;24;20418;-72
2022/11/13 11:23:18;;;;;;;8.87;8.20;;;16.20;99.90;;;;;;5950607;24;20498;-72
2022/11/13 11:25:50;;;;;;;7.67;7.17;;;16.60;99.90;;;;;;5957743;23;20463;-72
2022/11/13 11:28:29;;;;;;;7.83;7.23;;;16.90;99.90;;;;;;6006282;23;20421;-71
2022/11/13 11:31:04;;;;;;;7.57;7.07;;;17.00;99.90;;;;;;5998166;23;20447;-71
2022/11/13 11:33:36;;;;;;;7.40;6.90;;;17.00;99.90;;;;;;5976235;23;20453;-72
2022/11/13 11:36:15;;;;;;;7.47;6.87;;;16.90;99.90;;;;;;5977998;24;20900;-72
2022/11/13 11:38:54;;;;;;;7.63;7.13;;;16.70;99.90;;;;;;5977959;23;20462;-72
2022/11/13 11:41:28;;;;;;;7.63;7.13;;;16.60;99.90;;;;;;5990353;23;20428;-72
2022/11/13 11:44:04;;;;;;;7.70;7.20;;;16.70;99.90;;;;;;6006279;23;20424;-72
2022/11/13 11:46:31;;;;;;;8.47;7.77;;;16.90;99.90;;;;;;5950459;24;20453;-72
2022/11/13 11:49:00;;;;;;;8.03;7.53;;;17.00;99.90;;;;;;5973423;23;20520;-71
2022/11/13 11:51:36;;;;;;;7.83;7.33;;;17.00;99.90;;;;;;5977726;24;20943;-71
2022/11/13 11:54:16;;;;;;;7.40;6.90;;;17.00;99.90;;;;;;5976487;24;20429;-72
2022/11/13 11:56:48;;;;;;;8.43;7.83;;;17.10;99.90;;;;;;5978139;24;20500;-72
2022/11/13 11:59:30;;;;;;;8.50;7.90;;;17.30;99.90;;;;;;5975746;23;20591;-72
2022/11/13 12:02:17;;;;;;;7.00;6.50;;;17.30;99.90;;;;;;5991731;23;20426;-72
2022/11/13 12:04:56;;;;;;;7.57;7.07;;;17.30;99.90;;;;;;5988227;23;20449;-71
2022/11/13 12:07:35;;;;;;;14.53;13.13;;;17.50;99.90;;;;;;6006250;23;20436;-72
2022/11/13 12:10:14;;;;;;;9.27;8.60;;;17.80;99.90;;;;;;6005903;23;20720;-72
2022/11/13 12:12:51;;;;;;;8.20;7.60;;;18.00;99.90;;;;;;5984588;23;20515;-72
2022/11/13 12:15:25;;;;;;;7.40;6.90;;;18.00;99.90;;;;;;5984081;23;20436;-72
2022/11/13 12:17:59;;;;;;;8.20;7.70;;;18.00;99.90;;;;;;6005995;23;20482;-72
2022/11/13 12:20:36;;;;;;;7.80;7.20;;;17.90;99.90;;;;;;6006863;23;20423;-72
2022/11/13 12:23:20;;;;;;;8.80;7.90;;;17.90;99.90;;;;;;6007404;23;20903;-72
2022/11/13 12:25:51;;;;;;;7.87;7.27;;;17.90;99.90;;;;;;6007381;23;20452;-72
2022/11/13 12:28:25;;;;;;;7.37;6.87;;;17.80;99.90;;;;;;5983530;23;20435;-72
2022/11/13 12:31:04;;;;;;;7.40;6.97;;;17.70;99.90;;;;;;5990429;23;20455;-72
2022/11/13 12:33:40;;;;;;;8.07;7.50;;;17.60;99.90;;;;;;5982475;23;20437;-72
2022/11/13 12:36:11;;;;;;;8.13;7.53;;;17.60;99.90;;;;;;5979474;24;20427;-71
2022/11/13 12:38:47;;;;;;;7.73;7.23;;;17.50;99.90;;;;;;5977850;24;20453;-72
2022/11/13 12:41:22;;;;;;;8.03;7.53;;;17.20;99.90;;;;;;5974564;23;20865;-71
2022/11/13 12:44:22;;;;;;;7.90;7.30;;;17.00;99.90;;;;;;5978974;24;20426;-72
2022/11/13 12:46:51;;;;;;;8.13;7.53;;;16.80;99.90;;;;;;5977926;23;20507;-71
2022/11/13 12:49:31;;;;;;;7.77;7.20;;;16.70;99.90;;;;;;5958854;23;20441;-72
2022/11/13 12:52:01;;;;;;;7.27;6.80;;;16.50;99.90;;;;;;5963769;23;20833;-71
2022/11/13 12:54:31;;;;;;;8.30;7.70;;;16.40;99.90;;;;;;5977938;24;20456;-71
2022/11/13 12:57:20;;;;;;;8.10;7.50;;;16.30;99.90;;;;;;5966510;23;20477;-71